createdAt,value
2022-11-05T00:09:17.387Z,70.53
2022-11-05T00:19:44.841Z,70.71
2022-11-05T00:30:14.075Z,70.36
2022-11-05T00:40:41.437Z,70.28
2022-11-05T00:51:09.336Z,70.05
2022-11-05T01:01:36.813Z,70.29
2022-11-05T01:12:04.451Z,70.17
2022-11-05T01:22:31.797Z,69.96
2022-11-05T01:32:59.708Z,69.93
2022-11-05T01:43:27.277Z,69.97
2022-11-05T01:54:01.204Z,70.14
2022-11-05T02:04:33.070Z,70.15
2022-11-05T02:15:00.981Z,70.16
2022-11-05T02:25:58.697Z,70.30
2022-11-05T02:36:40.051Z,70.16
2022-11-05T02:47:18.287Z,70.23
2022-11-05T02:57:49.428Z,69.81
2022-11-05T03:08:28.175Z,69.68
2022-11-05T03:19:06.871Z,69.64
2022-11-05T03:29:38.654Z,69.67
2022-11-05T03:40:10.923Z,69.88
2022-11-05T03:50:44.201Z,70.09
2022-11-05T04:01:12.857Z,70.46
2022-11-05T04:11:57.891Z,71.00
2022-11-05T04:22:44.284Z,71.57
2022-11-05T04:33:14.216Z,72.18
2022-11-05T04:43:42.175Z,72.58
2022-11-05T04:54:09.540Z,72.87
2022-11-05T05:04:36.936Z,73.06
2022-11-05T05:15:05.307Z,73.24
2022-11-05T05:25:31.944Z,73.44
2022-11-05T05:36:05.750Z,73.48
2022-11-05T05:46:35.846Z,73.54
2022-11-05T05:57:04.004Z,73.50
2022-11-05T06:07:36.887Z,73.55
2022-11-05T06:18:04.937Z,73.64
2022-11-05T06:28:33.629Z,73.56
2022-11-05T06:39:00.972Z,73.55
2022-11-05T06:49:28.422Z,73.66
2022-11-05T07:00:00.562Z,73.51
2022-11-05T07:10:30.044Z,73.51
2022-11-05T07:20:57.515Z,73.47
2022-11-05T07:31:24.938Z,73.39
2022-11-05T07:41:54.948Z,73.50
2022-11-05T07:52:22.358Z,73.29
2022-11-05T08:03:05.583Z,73.30
2022-11-05T08:13:34.737Z,73.50
2022-11-05T08:24:02.252Z,73.57
2022-11-05T08:34:29.724Z,73.62
2022-11-05T08:44:57.129Z,73.90
2022-11-05T08:55:24.660Z,74.11
2022-11-05T09:05:52.143Z,74.18
2022-11-05T09:16:22.669Z,74.30
2022-11-05T09:26:50.047Z,74.41
2022-11-05T09:37:18.267Z,74.34
2022-11-05T09:47:50.000Z,74.47
2022-11-05T09:58:27.472Z,74.71
2022-11-05T10:09:02.487Z,74.88
2022-11-05T10:19:37.449Z,74.38
2022-11-05T10:30:05.589Z,74.32
2022-11-05T10:40:40.968Z,74.23
2022-11-05T10:51:09.411Z,74.55
2022-11-05T11:01:37.842Z,74.69
2022-11-05T11:12:06.451Z,74.69
2022-11-05T11:22:33.965Z,74.78
2022-11-05T11:33:08.617Z,74.96
2022-11-05T11:43:40.316Z,75.22
2022-11-05T11:54:20.207Z,75.26
2022-11-05T12:05:03.450Z,75.35
2022-11-05T12:15:43.097Z,75.36
2022-11-05T12:26:20.948Z,75.21
2022-11-05T12:37:05.253Z,74.74
2022-11-05T12:47:57.101Z,74.61
2022-11-05T12:58:30.036Z,74.44
2022-11-05T13:09:04.346Z,74.30
2022-11-05T13:19:36.755Z,74.23
2022-11-05T13:30:07.938Z,73.85
2022-11-05T13:40:46.068Z,73.61
2022-11-05T13:51:28.588Z,73.36
2022-11-05T14:01:59.701Z,73.14
2022-11-05T14:12:32.108Z,72.96
2022-11-05T14:23:47.869Z,73.06
2022-11-05T14:34:25.246Z,72.93
2022-11-05T14:45:03.200Z,72.77
2022-11-05T14:55:36.149Z,72.36
2022-11-05T15:06:22.036Z,71.98
2022-11-05T15:16:53.357Z,71.88
2022-11-05T15:27:28.881Z,71.56
2022-11-05T15:38:02.254Z,71.49
2022-11-05T15:48:30.338Z,71.48
2022-11-05T15:59:02.637Z,71.86
2022-11-05T16:09:32.788Z,72.01
2022-11-05T16:20:00.998Z,72.27
2022-11-05T16:30:29.367Z,72.52
2022-11-05T16:40:56.966Z,72.65
2022-11-05T16:51:27.409Z,72.65
2022-11-05T17:01:56.087Z,72.53
2022-11-05T17:12:23.668Z,72.57
2022-11-05T17:22:51.061Z,72.26
2022-11-05T17:33:18.852Z,72.31
2022-11-05T17:43:46.896Z,72.45
2022-11-05T17:54:14.288Z,71.98
2022-11-05T18:04:41.944Z,71.87
2022-11-05T18:15:10.769Z,72.06
2022-11-05T18:25:38.232Z,71.99
2022-11-05T18:36:05.859Z,72.04
2022-11-05T18:46:57.193Z,72.23
2022-11-05T18:57:21.400Z,72.04
2022-11-05T19:07:48.917Z,71.97
2022-11-05T19:18:16.276Z,71.89
2022-11-05T19:28:44.451Z,71.80
2022-11-05T19:39:12.653Z,71.98
2022-11-05T19:49:40.247Z,71.73
2022-11-05T20:00:09.617Z,71.76
2022-11-05T20:10:39.479Z,71.73
2022-11-05T20:21:11.622Z,71.37
2022-11-05T20:31:39.120Z,70.99
2022-11-05T20:42:06.721Z,70.98
2022-11-05T20:52:34.626Z,70.58
2022-11-05T21:03:02.101Z,70.55
2022-11-05T21:13:29.941Z,70.51
2022-11-05T21:23:58.015Z,70.42
2022-11-05T21:34:25.528Z,70.50
2022-11-05T21:44:57.709Z,70.38
2022-11-05T21:55:44.996Z,70.17
2022-11-05T22:06:12.480Z,70.36
2022-11-05T22:16:39.919Z,70.12
2022-11-05T22:27:09.496Z,69.99
2022-11-05T22:37:36.946Z,69.26
2022-11-05T22:48:06.877Z,68.83
2022-11-05T22:58:35.337Z,68.45
2022-11-05T23:09:20.753Z,68.25
2022-11-05T23:20:05.595Z,68.09
2022-11-05T23:30:33.193Z,67.83
2022-11-05T23:41:21.694Z,67.44
2022-11-05T23:51:47.699Z,67.50
